Wathena, Kansas
Current Conditions -  °F | °C
As of 5:53 AM on Saturday 20 Dec 2014 (Local Time) from KSTJ Reporting Station
Overcast Overcast  
Wind Chill: 25°   Ceiling: 1300
Heat Index: 33°   Visibility: 10mi
Dew Point: 30°   Wind: 10mph
Humidity: 89%   Direction: 160°SSE
Pressure: 30.17"   Gusts: NA
Location:  39.76°N, 94.95°W
Report Text: KSTJ 201153Z AUTO 16009KT 10SM OVC013 01/M01 A3017 RMK AO2 SLP222 T00061011 10006 21006 56011
Loading
Personal Weather Stations






























Interactive Weather Map New forecast layout! Learn more

10-Day Weather Forecast

Advertisements
Track Severe Weather on mobile